8LL YSBK-YSBK
Flight info
| Callsign | 8LL |
|---|---|
| Flight time | 0h 7m |
| Altitude | 1500 |
| Route | YSBK DCT |
| Aircraft | B429/L-SDGRY/S |
Departure
| Time | 2026-04-25 07:14 |
|---|---|
| Airport | Sydney Bankstown Airport (YSBK) |
Arrival
| Time | 2026-04-25 07:22 |
|---|---|
| Airport | Sydney Bankstown Airport (YSBK) |
| Time | Latitude | Longitude | Altitude | Speed | Heading |
|---|---|---|---|---|---|
| 2026-04-25 07:09 | -33.92112 | 150.99183 | 28 ft | 0 kts | 303° |
| 2026-04-25 07:13 | -33.92112 | 150.99182 | 49 ft | 2 kts | 18° |
| 2026-04-25 07:14 | -33.92036 | 150.99260 | 180 ft | 33 kts | 45° |
| 2026-04-25 07:14 | -33.91767 | 150.99500 | 418 ft | 64 kts | 33° |
| 2026-04-25 07:14 | -33.91361 | 150.99850 | 563 ft | 90 kts | 39° |
| 2026-04-25 07:14 | -33.90900 | 151.00377 | 724 ft | 95 kts | 34° |
| 2026-04-25 07:15 | -33.90414 | 151.00964 | 855 ft | 107 kts | 46° |
| 2026-04-25 07:15 | -33.89830 | 151.01629 | 832 ft | 123 kts | 34° |
| 2026-04-25 07:15 | -33.89109 | 151.02254 | 840 ft | 132 kts | 26° |
| 2026-04-25 07:15 | -33.88293 | 151.02803 | 823 ft | 134 kts | 25° |
| 2026-04-25 07:16 | -33.87466 | 151.03071 | 1015 ft | 127 kts | 350° |
| 2026-04-25 07:16 | -33.86562 | 151.02745 | 929 ft | 139 kts | 342° |
| 2026-04-25 07:16 | -33.85643 | 151.02385 | 877 ft | 137 kts | 340° |
| 2026-04-25 07:16 | -33.84774 | 151.02059 | 969 ft | 120 kts | 342° |
| 2026-04-25 07:17 | -33.83993 | 151.01755 | 1012 ft | 120 kts | 336° |
| 2026-04-25 07:17 | -33.83243 | 151.01302 | 973 ft | 122 kts | 338° |
| 2026-04-25 07:17 | -33.82428 | 151.01176 | 941 ft | 114 kts | 358° |
| 2026-04-25 07:17 | -33.81627 | 151.01153 | 863 ft | 119 kts | 1° |
| 2026-04-25 07:18 | -33.80961 | 151.01583 | 638 ft | 120 kts | 70° |
| 2026-04-25 07:18 | -33.81443 | 151.02229 | 620 ft | 108 kts | 154° |
| 2026-04-25 07:18 | -33.82136 | 151.02426 | 865 ft | 98 kts | 157° |
| 2026-04-25 07:18 | -33.82839 | 151.02387 | 950 ft | 111 kts | 188° |
| 2026-04-25 07:19 | -33.83528 | 151.01844 | 947 ft | 122 kts | 210° |
| 2026-04-25 07:19 | -33.84221 | 151.01210 | 938 ft | 131 kts | 207° |
| 2026-04-25 07:19 | -33.84964 | 151.00639 | 1081 ft | 122 kts | 194° |
| 2026-04-25 07:19 | -33.85772 | 151.00293 | 1061 ft | 127 kts | 188° |
| 2026-04-25 07:20 | -33.86637 | 151.00012 | 1011 ft | 130 kts | 182° |
| 2026-04-25 07:20 | -33.87482 | 150.99812 | 1023 ft | 119 kts | 178° |
| 2026-04-25 07:20 | -33.88290 | 150.99670 | 1019 ft | 115 kts | 178° |
| 2026-04-25 07:20 | -33.89090 | 150.99518 | 950 ft | 118 kts | 176° |
| 2026-04-25 07:21 | -33.89914 | 150.99399 | 880 ft | 119 kts | 176° |
| 2026-04-25 07:21 | -33.90717 | 150.99176 | 788 ft | 123 kts | 192° |
| 2026-04-25 07:21 | -33.91523 | 150.98970 | 476 ft | 112 kts | 164° |
| 2026-04-25 07:21 | -33.92110 | 150.99019 | 363 ft | 60 kts | 142° |
| 2026-04-25 07:22 | -33.92244 | 150.99190 | 209 ft | 26 kts | 50° |
| 2026-04-25 07:22 | -33.92123 | 150.99235 | 114 ft | 6 kts | 276° |
| 2026-04-25 07:22 | -33.92112 | 150.99190 | 40 ft | 3 kts | 289° |
| 2026-04-25 07:22 | -33.92111 | 150.99184 | 27 ft | 0 kts | 288° |